Terminal Aerodrome Forecast
Issued by NWS

Home | Current Version | Previous Version | Text Only | Print | Product List | Glossary On
Versions: 1 2 3 4 5 6 7 8 9 10 11 12 13 14 15 16 17 18 19 20
000
FTUS43 KLSX 261400 AAA
TAFSUS
TAF AMD
KSUS 261414Z 2614/2712 34011G20KT P6SM BKN027 OVC110
     FM261600 33010KT P6SM SCT050 BKN120
     FM261800 32012G20KT P6SM SKC
     FM270000 33004KT P6SM BKN250
     FM270600 34004KT P6SM SCT050 BKN120=

USA.gov is the U.S. government's official web portal to all federal, state and local government web resources and services.